Terminal Aerodrome Forecast
Issued by NWS

Home | Current Version | Previous Version | Text Only | Print | Product List | Glossary On
Versions: 1 2 3 4 5 6 7 8 9 10 11 12 13 14 15 16 17 18 19 20 21 22
000
FTUS45 KBOI 250520
TAFBKE
TAF
KBKE 250520Z 2506/2606 32005KT P6SM SCT120
     FM250800 VRB03KT P6SM -SHRA SCT025 OVC040
     FM251200 32010KT 5SM -RA BR OVC025
     FM260000 32015G22KT P6SM VCSH SCT050 BKN100=

USA.gov is the U.S. government's official web portal to all federal, state and local government web resources and services.